sensor_id;sensor_type;location;lat;lon;timestamp;pressure;altitude;pressure_sealevel;temperature;humidity
71764;BME280;59602;52.142;5.408;2023-06-22T00:02:15;102073.69;;;19.92;76.39
71764;BME280;59602;52.142;5.408;2023-06-22T00:04:42;102070.53;;;19.90;76.25
71764;BME280;59602;52.142;5.408;2023-06-22T00:07:09;102072.16;;;19.87;76.60
71764;BME280;59602;52.142;5.408;2023-06-22T00:09:36;102076.06;;;19.90;76.60
71764;BME280;59602;52.142;5.408;2023-06-22T00:12:02;102076.06;;;19.90;76.64
71764;BME280;59602;52.142;5.408;2023-06-22T00:14:29;102082.38;;;19.90;77.00
71764;BME280;59602;52.142;5.408;2023-06-22T00:16:56;102077.69;;;19.87;76.83
71764;BME280;59602;52.142;5.408;2023-06-22T00:19:25;102072.59;;;19.82;76.87
71764;BME280;59602;52.142;5.408;2023-06-22T00:21:51;102068.31;;;19.78;76.76
71764;BME280;59602;52.142;5.408;2023-06-22T00:24:20;102077.81;;;19.77;77.34
71764;BME280;59602;52.142;5.408;2023-06-22T00:26:48;102073.47;;;19.76;77.33
71764;BME280;59602;52.142;5.408;2023-06-22T00:29:15;102070.38;;;19.74;77.17
71764;BME280;59602;52.142;5.408;2023-06-22T00:31:42;102062.50;;;19.68;77.06
71764;BME280;59602;52.142;5.408;2023-06-22T00:34:09;102062.94;;;19.67;76.94
71764;BME280;59602;52.142;5.408;2023-06-22T00:36:36;102054.66;;;19.67;77.22
71764;BME280;59602;52.142;5.408;2023-06-22T00:39:03;102055.44;;;19.64;77.05
71764;BME280;59602;52.142;5.408;2023-06-22T00:41:30;102055.50;;;19.60;77.47
71764;BME280;59602;52.142;5.408;2023-06-22T00:43:57;102053.56;;;19.57;77.24
71764;BME280;59602;52.142;5.408;2023-06-22T00:46:24;102048.03;;;19.57;77.68
71764;BME280;59602;52.142;5.408;2023-06-22T00:48:52;102048.44;;;19.56;77.47
71764;BME280;59602;52.142;5.408;2023-06-22T00:51:19;102051.63;;;19.54;77.58
71764;BME280;59602;52.142;5.408;2023-06-22T00:53:51;102043.38;;;19.50;77.73
71764;BME280;59602;52.142;5.408;2023-06-22T00:56:20;102052.53;;;19.44;78.01
71764;BME280;59602;52.142;5.408;2023-06-22T00:58:51;102045.09;;;19.41;78.61
71764;BME280;59602;52.142;5.408;2023-06-22T01:01:19;102046.25;;;19.40;77.95
71764;BME280;59602;52.142;5.408;2023-06-22T01:03:50;102053.00;;;19.39;77.91
71764;BME280;59602;52.142;5.408;2023-06-22T01:06:24;102047.13;;;19.33;77.68
71764;BME280;59602;52.142;5.408;2023-06-22T01:09:02;102042.47;;;19.26;78.07
71764;BME280;59602;52.142;5.408;2023-06-22T01:11:38;102040.94;;;19.22;78.21
71764;BME280;59602;52.142;5.408;2023-06-22T01:14:15;102046.88;;;19.20;78.32
71764;BME280;59602;52.142;5.408;2023-06-22T01:16:45;102046.06;;;19.20;78.41
71764;BME280;59602;52.142;5.408;2023-06-22T01:19:29;102061.44;;;19.21;77.52
71764;BME280;59602;52.142;5.408;2023-06-22T01:21:59;102061.84;;;19.19;78.30
71764;BME280;59602;52.142;5.408;2023-06-22T01:24:32;102060.28;;;19.18;78.20
71764;BME280;59602;52.142;5.408;2023-06-22T01:27:23;102051.66;;;19.13;77.72
71764;BME280;59602;52.142;5.408;2023-06-22T01:29:57;102036.75;;;19.06;78.01
71764;BME280;59602;52.142;5.408;2023-06-22T01:32:30;102031.66;;;19.05;78.07
71764;BME280;59602;52.142;5.408;2023-06-22T01:35:01;102043.84;;;19.07;77.93
71764;BME280;59602;52.142;5.408;2023-06-22T01:37:30;102050.91;;;19.08;78.24
71764;BME280;59602;52.142;5.408;2023-06-22T01:39:59;102050.59;;;19.03;78.28
71764;BME280;59602;52.142;5.408;2023-06-22T01:42:26;102048.28;;;18.98;78.65
71764;BME280;59602;52.142;5.408;2023-06-22T01:44:53;102044.34;;;18.95;78.80
71764;BME280;59602;52.142;5.408;2023-06-22T01:47:22;102042.00;;;18.94;78.59
71764;BME280;59602;52.142;5.408;2023-06-22T01:49:49;102048.38;;;18.87;78.72
71764;BME280;59602;52.142;5.408;2023-06-22T01:52:19;102040.91;;;18.84;78.68
71764;BME280;59602;52.142;5.408;2023-06-22T01:54:47;102039.75;;;18.81;78.93
71764;BME280;59602;52.142;5.408;2023-06-22T01:57:14;102034.28;;;18.74;79.26
71764;BME280;59602;52.142;5.408;2023-06-22T02:00:07;102037.81;;;18.75;79.01
71764;BME280;59602;52.142;5.408;2023-06-22T02:02:42;102049.66;;;18.72;79.33
71764;BME280;59602;52.142;5.408;2023-06-22T02:05:10;102035.88;;;18.72;79.37
71764;BME280;59602;52.142;5.408;2023-06-22T02:07:45;102030.38;;;18.72;79.09
71764;BME280;59602;52.142;5.408;2023-06-22T02:10:15;102028.44;;;18.65;79.51
71764;BME280;59602;52.142;5.408;2023-06-22T02:12:44;102024.16;;;18.60;79.99
71764;BME280;59602;52.142;5.408;2023-06-22T02:15:11;102024.56;;;18.59;79.69
71764;BME280;59602;52.142;5.408;2023-06-22T02:17:42;102025.34;;;18.59;79.88
71764;BME280;59602;52.142;5.408;2023-06-22T02:20:12;102026.91;;;18.60;79.90
71764;BME280;59602;52.142;5.408;2023-06-22T02:22:40;102020.22;;;18.61;80.02
71764;BME280;59602;52.142;5.408;2023-06-22T02:25:08;102028.06;;;18.63;79.39
71764;BME280;59602;52.142;5.408;2023-06-22T02:27:34;102023.38;;;18.60;79.59
71764;BME280;59602;52.142;5.408;2023-06-22T02:30:01;102015.53;;;18.55;79.69
71764;BME280;59602;52.142;5.408;2023-06-22T02:32:28;102018.34;;;18.51;79.83
71764;BME280;59602;52.142;5.408;2023-06-22T02:34:54;102022.69;;;18.49;79.84
71764;BME280;59602;52.142;5.408;2023-06-22T02:37:21;102024.25;;;18.50;80.26
71764;BME280;59602;52.142;5.408;2023-06-22T02:39:52;102021.47;;;18.53;80.64
71764;BME280;59602;52.142;5.408;2023-06-22T02:42:18;102026.56;;;18.55;80.10
71764;BME280;59602;52.142;5.408;2023-06-22T02:44:47;102027.78;;;18.50;80.11
71764;BME280;59602;52.142;5.408;2023-06-22T02:47:14;102019.19;;;18.44;79.51
71764;BME280;59602;52.142;5.408;2023-06-22T02:49:40;102014.06;;;18.39;79.70
71764;BME280;59602;52.142;5.408;2023-06-22T02:52:08;102020.41;;;18.36;80.03
71764;BME280;59602;52.142;5.408;2023-06-22T02:54:34;102007.84;;;18.32;80.14
71764;BME280;59602;52.142;5.408;2023-06-22T02:57:01;102005.88;;;18.32;80.37
71764;BME280;59602;52.142;5.408;2023-06-22T02:59:29;102012.97;;;18.33;80.60
71764;BME280;59602;52.142;5.408;2023-06-22T03:01:59;102017.28;;;18.34;79.92
71764;BME280;59602;52.142;5.408;2023-06-22T03:04:26;102015.28;;;18.35;79.91
71764;BME280;59602;52.142;5.408;2023-06-22T03:06:52;102018.84;;;18.35;79.96
71764;BME280;59602;52.142;5.408;2023-06-22T03:09:20;102020.41;;;18.33;80.22
71764;BME280;59602;52.142;5.408;2023-06-22T03:11:46;102017.28;;;18.31;80.18
71764;BME280;59602;52.142;5.408;2023-06-22T03:14:13;102011.81;;;18.27;80.55
71764;BME280;59602;52.142;5.408;2023-06-22T03:16:40;102017.72;;;18.29;80.62
71764;BME280;59602;52.142;5.408;2023-06-22T03:19:07;102020.84;;;18.31;80.39
71764;BME280;59602;52.142;5.408;2023-06-22T03:21:34;102022.78;;;18.31;80.37
71764;BME280;59602;52.142;5.408;2023-06-22T03:24:01;102020.06;;;18.27;80.75
71764;BME280;59602;52.142;5.408;2023-06-22T03:26:27;102015.75;;;18.26;80.74
71764;BME280;59602;52.142;5.408;2023-06-22T03:28:55;102022.06;;;18.27;80.82
71764;BME280;59602;52.142;5.408;2023-06-22T03:31:22;102014.19;;;18.25;80.42
71764;BME280;59602;52.142;5.408;2023-06-22T03:33:49;102004.00;;;18.22;80.21
71764;BME280;59602;52.142;5.408;2023-06-22T03:36:17;101998.13;;;18.16;80.79
71764;BME280;59602;52.142;5.408;2023-06-22T03:38:46;101999.69;;;18.17;80.89
71764;BME280;59602;52.142;5.408;2023-06-22T03:41:13;101987.50;;;18.15;80.84
71764;BME280;59602;52.142;5.408;2023-06-22T03:43:40;101994.22;;;18.14;80.92
71764;BME280;59602;52.142;5.408;2023-06-22T03:46:06;101991.84;;;18.16;80.72
71764;BME280;59602;52.142;5.408;2023-06-22T03:48:33;101996.53;;;18.19;80.90
71764;BME280;59602;52.142;5.408;2023-06-22T03:51:01;101994.16;;;18.21;80.74
71764;BME280;59602;52.142;5.408;2023-06-22T03:53:29;102000.44;;;18.21;80.86
71764;BME280;59602;52.142;5.408;2023-06-22T03:55:56;101988.25;;;18.22;80.28
71764;BME280;59602;52.142;5.408;2023-06-22T03:58:23;101994.59;;;18.16;80.49
71764;BME280;59602;52.142;5.408;2023-06-22T04:00:51;101989.47;;;18.14;81.08
71764;BME280;59602;52.142;5.408;2023-06-22T04:03:18;101991.44;;;18.17;81.34
71764;BME280;59602;52.142;5.408;2023-06-22T04:05:46;101991.03;;;18.19;81.08
71764;BME280;59602;52.142;5.408;2023-06-22T04:08:13;101991.44;;;18.17;81.00
71764;BME280;59602;52.142;5.408;2023-06-22T04:10:40;101997.34;;;18.16;81.40
71764;BME280;59602;52.142;5.408;2023-06-22T04:13:07;101987.88;;;18.20;81.27
71764;BME280;59602;52.142;5.408;2023-06-22T04:15:34;101974.06;;;18.24;81.43
71764;BME280;59602;52.142;5.408;2023-06-22T04:18:00;101980.38;;;18.24;80.78
71764;BME280;59602;52.142;5.408;2023-06-22T04:20:27;101977.16;;;18.33;81.29
71764;BME280;59602;52.142;5.408;2023-06-22T04:22:55;101979.03;;;18.43;80.85
71764;BME280;59602;52.142;5.408;2023-06-22T04:25:22;101980.94;;;18.50;80.32
71764;BME280;59602;52.142;5.408;2023-06-22T04:27:49;101973.81;;;18.56;80.31
71764;BME280;59602;52.142;5.408;2023-06-22T04:30:15;101974.97;;;18.59;80.30
71764;BME280;59602;52.142;5.408;2023-06-22T04:32:44;101985.97;;;18.62;80.02
71764;BME280;59602;52.142;5.408;2023-06-22T04:35:11;101984.38;;;18.65;80.19
71764;BME280;59602;52.142;5.408;2023-06-22T04:37:38;101976.84;;;18.69;79.81
71764;BME280;59602;52.142;5.408;2023-06-22T04:40:06;101974.84;;;18.73;79.57
71764;BME280;59602;52.142;5.408;2023-06-22T04:42:34;101978.75;;;18.79;79.53
71764;BME280;59602;52.142;5.408;2023-06-22T04:45:03;101971.63;;;18.82;79.32
71764;BME280;59602;52.142;5.408;2023-06-22T04:47:30;101981.09;;;18.84;79.50
71764;BME280;59602;52.142;5.408;2023-06-22T04:49:57;101979.47;;;18.87;79.46
71764;BME280;59602;52.142;5.408;2023-06-22T04:52:23;101982.56;;;18.93;79.45
71764;BME280;59602;52.142;5.408;2023-06-22T04:54:51;101979.38;;;18.98;79.29
71764;BME280;59602;52.142;5.408;2023-06-22T04:57:21;101983.19;;;19.07;79.33
71764;BME280;59602;52.142;5.408;2023-06-22T05:00:00;101987.06;;;19.14;78.87
71764;BME280;59602;52.142;5.408;2023-06-22T05:02:39;101989.41;;;19.15;78.88
71764;BME280;59602;52.142;5.408;2023-06-22T05:05:06;101989.00;;;19.17;79.19
71764;BME280;59602;52.142;5.408;2023-06-22T05:07:34;101991.34;;;19.18;79.11
71764;BME280;59602;52.142;5.408;2023-06-22T05:10:07;101989.34;;;19.22;79.17
71764;BME280;59602;52.142;5.408;2023-06-22T05:12:34;101994.78;;;19.29;79.33
71764;BME280;59602;52.142;5.408;2023-06-22T05:15:01;101988.03;;;19.34;79.21
71764;BME280;59602;52.142;5.408;2023-06-22T05:17:28;101992.69;;;19.41;79.20
71764;BME280;59602;52.142;5.408;2023-06-22T05:19:55;101983.56;;;19.44;79.29
71764;BME280;59602;52.142;5.408;2023-06-22T05:22:23;101990.97;;;19.50;79.40
71764;BME280;59602;52.142;5.408;2023-06-22T05:24:49;101989.31;;;19.57;79.35
71764;BME280;59602;52.142;5.408;2023-06-22T05:27:16;101991.19;;;19.67;79.39
71764;BME280;59602;52.142;5.408;2023-06-22T05:29:42;101997.41;;;19.75;78.76
71764;BME280;59602;52.142;5.408;2023-06-22T05:32:11;101995.47;;;19.72;78.77
71764;BME280;59602;52.142;5.408;2023-06-22T05:34:38;101997.81;;;19.73;79.08
71764;BME280;59602;52.142;5.408;2023-06-22T05:37:05;102000.78;;;19.86;78.78
71764;BME280;59602;52.142;5.408;2023-06-22T05:39:32;101994.28;;;20.00;78.67
71764;BME280;59602;52.142;5.408;2023-06-22T05:41:59;101995.66;;;20.15;78.09
71764;BME280;59602;52.142;5.408;2023-06-22T05:44:25;101998.34;;;20.19;77.79
71764;BME280;59602;52.142;5.408;2023-06-22T05:46:52;102000.03;;;20.13;78.30
71764;BME280;59602;52.142;5.408;2023-06-22T05:49:19;102002.31;;;20.18;78.71
71764;BME280;59602;52.142;5.408;2023-06-22T05:51:46;102001.00;;;20.26;78.31
71764;BME280;59602;52.142;5.408;2023-06-22T05:54:13;101998.53;;;20.31;78.54
71764;BME280;59602;52.142;5.408;2023-06-22T05:56:42;101996.88;;;20.38;78.32
71764;BME280;59602;52.142;5.408;2023-06-22T05:59:09;101998.38;;;20.42;78.25
71764;BME280;59602;52.142;5.408;2023-06-22T06:01:35;102004.09;;;20.55;78.34
71764;BME280;59602;52.142;5.408;2023-06-22T06:04:03;102007.84;;;20.68;77.37
71764;BME280;59602;52.142;5.408;2023-06-22T06:06:30;102002.84;;;20.83;76.69
71764;BME280;59602;52.142;5.408;2023-06-22T06:08:57;102000.81;;;21.07;76.57
71764;BME280;59602;52.142;5.408;2023-06-22T06:11:25;101993.03;;;21.22;75.48
71764;BME280;59602;52.142;5.408;2023-06-22T06:13:52;101999.13;;;21.33;74.63
71764;BME280;59602;52.142;5.408;2023-06-22T06:16:19;101995.78;;;21.46;74.63
71764;BME280;59602;52.142;5.408;2023-06-22T06:18:46;101989.41;;;21.65;73.62
71764;BME280;59602;52.142;5.408;2023-06-22T06:21:12;101986.75;;;21.78;72.79
71764;BME280;59602;52.142;5.408;2023-06-22T06:23:39;101983.13;;;21.81;72.89
71764;BME280;59602;52.142;5.408;2023-06-22T06:26:07;101982.53;;;21.90;71.85
71764;BME280;59602;52.142;5.408;2023-06-22T06:28:34;101989.19;;;21.92;72.12
71764;BME280;59602;52.142;5.408;2023-06-22T06:31:02;101982.28;;;22.01;72.09
71764;BME280;59602;52.142;5.408;2023-06-22T06:33:33;101983.09;;;22.17;72.37
71764;BME280;59602;52.142;5.408;2023-06-22T06:36:00;101976.81;;;22.33;70.82
71764;BME280;59602;52.142;5.408;2023-06-22T06:38:30;101983.22;;;22.47;70.23
71764;BME280;59602;52.142;5.408;2023-06-22T06:40:58;101979.72;;;22.59;69.24
71764;BME280;59602;52.142;5.408;2023-06-22T06:43:25;101974.59;;;22.74;68.85
71764;BME280;59602;52.142;5.408;2023-06-22T06:45:52;101977.50;;;22.83;68.75
71764;BME280;59602;52.142;5.408;2023-06-22T06:53:57;101965.06;;;23.33;67.34
71764;BME280;59602;52.142;5.408;2023-06-22T06:56:24;101967.97;;;23.42;67.11
71764;BME280;59602;52.142;5.408;2023-06-22T06:58:51;101970.09;;;23.51;66.85
71764;BME280;59602;52.142;5.408;2023-06-22T07:01:18;101968.53;;;23.50;66.02
71764;BME280;59602;52.142;5.408;2023-06-22T07:03:48;101976.97;;;23.47;66.34
71764;BME280;59602;52.142;5.408;2023-06-22T07:06:14;101961.22;;;23.56;66.08
71764;BME280;59602;52.142;5.408;2023-06-22T07:08:42;101953.97;;;23.59;65.78
71764;BME280;59602;52.142;5.408;2023-06-22T07:11:09;101963.75;;;23.63;66.16
71764;BME280;59602;52.142;5.408;2023-06-22T07:13:36;101963.88;;;23.73;66.04
71764;BME280;59602;52.142;5.408;2023-06-22T07:16:03;101966.66;;;23.73;64.97
71764;BME280;59602;52.142;5.408;2023-06-22T07:18:30;101955.66;;;23.69;64.94
71764;BME280;59602;52.142;5.408;2023-06-22T07:20:57;101953.75;;;23.66;64.31
71764;BME280;59602;52.142;5.408;2023-06-22T07:23:24;101957.00;;;23.65;65.23
71764;BME280;59602;52.142;5.408;2023-06-22T07:25:50;101962.44;;;23.68;64.00
71764;BME280;59602;52.142;5.408;2023-06-22T07:28:17;101966.22;;;23.74;63.51
71764;BME280;59602;52.142;5.408;2023-06-22T07:30:43;101960.56;;;23.91;63.23
71764;BME280;59602;52.142;5.408;2023-06-22T07:33:10;101966.03;;;24.07;62.72
71764;BME280;59602;52.142;5.408;2023-06-22T07:35:37;101966.56;;;24.15;61.71
71764;BME280;59602;52.142;5.408;2023-06-22T07:38:04;101966.78;;;24.20;62.76
71764;BME280;59602;52.142;5.408;2023-06-22T07:40:32;101962.75;;;24.34;62.18
71764;BME280;59602;52.142;5.408;2023-06-22T07:42:59;101959.38;;;24.39;61.38
71764;BME280;59602;52.142;5.408;2023-06-22T07:45:25;101949.16;;;24.49;61.24
71764;BME280;59602;52.142;5.408;2023-06-22T07:47:52;101950.72;;;24.50;61.25
71764;BME280;59602;52.142;5.408;2023-06-22T07:50:19;101948.59;;;24.41;61.07
71764;BME280;59602;52.142;5.408;2023-06-22T07:52:45;101937.16;;;24.39;60.89
71764;BME280;59602;52.142;5.408;2023-06-22T07:55:13;101932.53;;;24.23;61.85
71764;BME280;59602;52.142;5.408;2023-06-22T07:57:40;101941.19;;;24.26;61.65
71764;BME280;59602;52.142;5.408;2023-06-22T08:00:09;101942.41;;;24.24;61.16
71764;BME280;59602;52.142;5.408;2023-06-22T08:02:45;101942.09;;;24.22;61.65
71764;BME280;59602;52.142;5.408;2023-06-22T08:05:14;101936.88;;;24.12;61.46
71764;BME280;59602;52.142;5.408;2023-06-22T08:07:48;101929.22;;;23.90;61.86
71764;BME280;59602;52.142;5.408;2023-06-22T08:10:15;101927.25;;;23.78;62.75
71764;BME280;59602;52.142;5.408;2023-06-22T08:12:42;101918.31;;;23.70;62.03
71764;BME280;59602;52.142;5.408;2023-06-22T08:15:09;101911.44;;;23.62;62.06
71764;BME280;59602;52.142;5.408;2023-06-22T08:17:37;101914.44;;;23.55;61.72
71764;BME280;59602;52.142;5.408;2023-06-22T08:20:06;101908.22;;;23.51;62.83
71764;BME280;59602;52.142;5.408;2023-06-22T08:22:42;101902.22;;;23.52;62.72
71764;BME280;59602;52.142;5.408;2023-06-22T08:25:13;101904.56;;;23.54;62.90
71764;BME280;59602;52.142;5.408;2023-06-22T08:27:45;101898.34;;;23.50;61.82
71764;BME280;59602;52.142;5.408;2023-06-22T08:30:13;101886.22;;;23.44;62.35
71764;BME280;59602;52.142;5.408;2023-06-22T08:32:40;101889.78;;;23.44;62.56
71764;BME280;59602;52.142;5.408;2023-06-22T08:35:09;101884.13;;;23.48;62.85
71764;BME280;59602;52.142;5.408;2023-06-22T08:37:37;101878.81;;;23.53;62.97
71764;BME280;59602;52.142;5.408;2023-06-22T08:40:07;101882.69;;;23.56;62.48
71764;BME280;59602;52.142;5.408;2023-06-22T08:42:40;101878.34;;;23.55;61.80
71764;BME280;59602;52.142;5.408;2023-06-22T08:45:09;101875.56;;;23.55;61.66
71764;BME280;59602;52.142;5.408;2023-06-22T08:47:36;101875.91;;;23.57;62.53
71764;BME280;59602;52.142;5.408;2023-06-22T08:50:03;101869.91;;;23.58;60.54
71764;BME280;59602;52.142;5.408;2023-06-22T08:52:30;101867.00;;;23.62;60.44
71764;BME280;59602;52.142;5.408;2023-06-22T08:54:58;101867.91;;;23.72;60.40
71764;BME280;59602;52.142;5.408;2023-06-22T08:57:25;101866.59;;;23.76;58.66
71764;BME280;59602;52.142;5.408;2023-06-22T08:59:52;101868.78;;;23.81;58.62
71764;BME280;59602;52.142;5.408;2023-06-22T09:02:19;101863.13;;;23.85;59.63
71764;BME280;59602;52.142;5.408;2023-06-22T09:04:46;101869.69;;;23.91;59.71
71764;BME280;59602;52.142;5.408;2023-06-22T09:07:14;101868.44;;;23.92;58.05
71764;BME280;59602;52.142;5.408;2023-06-22T09:09:40;101872.34;;;23.95;57.14
71764;BME280;59602;52.142;5.408;2023-06-22T09:12:07;101866.44;;;23.93;56.51
71764;BME280;59602;52.142;5.408;2023-06-22T09:14:34;101869.44;;;23.98;58.09
71764;BME280;59602;52.142;5.408;2023-06-22T09:17:01;101868.88;;;24.03;57.04
71764;BME280;59602;52.142;5.408;2023-06-22T09:19:27;101862.88;;;24.05;57.16
71764;BME280;59602;52.142;5.408;2023-06-22T09:21:54;101857.19;;;24.09;56.03
71764;BME280;59602;52.142;5.408;2023-06-22T09:24:21;101855.50;;;24.11;55.57
71764;BME280;59602;52.142;5.408;2023-06-22T09:26:47;101856.97;;;24.16;56.37
71764;BME280;59602;52.142;5.408;2023-06-22T09:29:14;101862.38;;;24.19;54.37
71764;BME280;59602;52.142;5.408;2023-06-22T09:31:41;101861.50;;;24.22;54.51
71764;BME280;59602;52.142;5.408;2023-06-22T09:34:08;101859.81;;;24.25;54.23
71764;BME280;59602;52.142;5.408;2023-06-22T09:36:34;101862.59;;;24.25;54.67
71764;BME280;59602;52.142;5.408;2023-06-22T09:39:01;101863.88;;;24.33;55.48
71764;BME280;59602;52.142;5.408;2023-06-22T09:41:35;101858.53;;;24.39;53.60
71764;BME280;59602;52.142;5.408;2023-06-22T09:44:02;101857.28;;;24.40;54.20
71764;BME280;59602;52.142;5.408;2023-06-22T09:46:29;101861.50;;;24.44;54.01
71764;BME280;59602;52.142;5.408;2023-06-22T09:48:55;101849.84;;;24.50;53.42
71764;BME280;59602;52.142;5.408;2023-06-22T09:54:42;101853.78;;;24.61;51.65
71764;BME280;59602;52.142;5.408;2023-06-22T09:57:09;101844.34;;;24.59;52.89
71764;BME280;59602;52.142;5.408;2023-06-22T09:59:36;101851.91;;;24.58;51.89
71764;BME280;59602;52.142;5.408;2023-06-22T10:02:03;101856.69;;;24.58;53.00
71764;BME280;59602;52.142;5.408;2023-06-22T10:04:29;101844.47;;;24.55;51.96
71764;BME280;59602;52.142;5.408;2023-06-22T10:06:57;101854.50;;;24.53;52.03
71764;BME280;59602;52.142;5.408;2023-06-22T10:09:23;101853.84;;;24.49;52.18
71764;BME280;59602;52.142;5.408;2023-06-22T10:11:50;101858.63;;;24.48;53.41
71764;BME280;59602;52.142;5.408;2023-06-22T10:14:17;101853.84;;;24.49;52.64
71764;BME280;59602;52.142;5.408;2023-06-22T10:16:43;101852.28;;;24.48;51.99
71764;BME280;59602;52.142;5.408;2023-06-22T10:19:10;101849.50;;;24.48;51.74
71764;BME280;59602;52.142;5.408;2023-06-22T10:21:37;101846.72;;;24.48;51.53
71764;BME280;59602;52.142;5.408;2023-06-22T10:24:03;101842.50;;;24.43;52.08
71764;BME280;59602;52.142;5.408;2023-06-22T10:26:33;101842.94;;;24.41;53.05
71764;BME280;59602;52.142;5.408;2023-06-22T10:29:00;101846.97;;;24.40;52.77
71764;BME280;59602;52.142;5.408;2023-06-22T10:31:33;101848.94;;;24.40;52.55
71764;BME280;59602;52.142;5.408;2023-06-22T10:33:59;101847.41;;;24.39;52.49
71764;BME280;59602;52.142;5.408;2023-06-22T10:36:26;101844.63;;;24.39;52.33
71764;BME280;59602;52.142;5.408;2023-06-22T10:38:53;101852.19;;;24.38;52.63
71764;BME280;59602;52.142;5.408;2023-06-22T10:41:20;101846.75;;;24.35;52.73
71764;BME280;59602;52.142;5.408;2023-06-22T10:43:47;101849.53;;;24.35;52.82
71764;BME280;59602;52.142;5.408;2023-06-22T10:46:13;101843.19;;;24.34;53.16
71764;BME280;59602;52.142;5.408;2023-06-22T10:48:40;101853.09;;;24.35;54.09
71764;BME280;59602;52.142;5.408;2023-06-22T10:51:07;101850.97;;;24.39;53.59
71764;BME280;59602;52.142;5.408;2023-06-22T10:53:33;101848.50;;;24.41;53.21
71764;BME280;59602;52.142;5.408;2023-06-22T10:56:00;101849.28;;;24.42;54.10
71764;BME280;59602;52.142;5.408;2023-06-22T10:58:28;101855.59;;;24.42;53.47
71764;BME280;59602;52.142;5.408;2023-06-22T11:00:54;101850.50;;;24.41;53.96
71764;BME280;59602;52.142;5.408;2023-06-22T11:03:21;101856.84;;;24.41;53.91
71764;BME280;59602;52.142;5.408;2023-06-22T11:05:47;101854.06;;;24.41;54.62
71764;BME280;59602;52.142;5.408;2023-06-22T11:08:14;101848.06;;;24.43;56.77
71764;BME280;59602;52.142;5.408;2023-06-22T11:10:41;101848.06;;;24.43;54.94
71764;BME280;59602;52.142;5.408;2023-06-22T11:13:08;101845.28;;;24.43;54.77
71764;BME280;59602;52.142;5.408;2023-06-22T11:15:39;101843.28;;;24.43;55.49
71764;BME280;59602;52.142;5.408;2023-06-22T11:18:05;101834.50;;;24.45;56.03
71764;BME280;59602;52.142;5.408;2023-06-22T11:20:33;101830.47;;;24.46;55.08
71764;BME280;59602;52.142;5.408;2023-06-22T11:23:05;101836.38;;;24.48;56.49
71764;BME280;59602;52.142;5.408;2023-06-22T11:25:33;101848.28;;;24.49;56.54
71764;BME280;59602;52.142;5.408;2023-06-22T11:28:02;101832.69;;;24.51;58.00
71764;BME280;59602;52.142;5.408;2023-06-22T11:30:30;101833.66;;;24.57;58.63
71764;BME280;59602;52.142;5.408;2023-06-22T11:32:58;101828.31;;;24.63;58.58
71764;BME280;59602;52.142;5.408;2023-06-22T11:35:26;101830.94;;;24.67;57.66
71764;BME280;59602;52.142;5.408;2023-06-22T11:37:52;101826.47;;;24.69;57.81
71764;BME280;59602;52.142;5.408;2023-06-22T11:40:19;101823.84;;;24.65;57.99
71764;BME280;59602;52.142;5.408;2023-06-22T11:42:46;101814.41;;;24.63;58.46
71764;BME280;59602;52.142;5.408;2023-06-22T11:45:13;101809.59;;;24.63;59.99
71764;BME280;59602;52.142;5.408;2023-06-22T11:47:39;101799.13;;;24.68;59.05
71764;BME280;59602;52.142;5.408;2023-06-22T11:50:07;101800.81;;;24.65;59.39
71764;BME280;59602;52.142;5.408;2023-06-22T11:52:34;101799.56;;;24.66;59.09
71764;BME280;59602;52.142;5.408;2023-06-22T11:55:02;101799.44;;;24.70;60.61
71764;BME280;59602;52.142;5.408;2023-06-22T11:57:36;101801.44;;;24.69;58.67
71764;BME280;59602;52.142;5.408;2023-06-22T12:00:04;101796.03;;;24.65;59.25
71764;BME280;59602;52.142;5.408;2023-06-22T12:02:40;101798.03;;;24.65;59.26
71764;BME280;59602;52.142;5.408;2023-06-22T12:05:07;101787.03;;;24.61;58.91
71764;BME280;59602;52.142;5.408;2023-06-22T12:07:34;101793.03;;;24.60;59.78
71764;BME280;59602;52.142;5.408;2023-06-22T12:10:01;101793.97;;;24.57;59.29
71764;BME280;59602;52.142;5.408;2023-06-22T12:12:28;101794.09;;;24.53;59.07
71764;BME280;59602;52.142;5.408;2023-06-22T12:14:55;101785.72;;;24.53;58.75
71764;BME280;59602;52.142;5.408;2023-06-22T12:17:21;101782.19;;;24.53;59.76
71764;BME280;59602;52.142;5.408;2023-06-22T12:19:48;101777.06;;;24.51;58.82
71764;BME280;59602;52.142;5.408;2023-06-22T12:22:17;101787.31;;;24.54;58.86
71764;BME280;59602;52.142;5.408;2023-06-22T12:24:44;101784.63;;;24.51;58.94
71764;BME280;59602;52.142;5.408;2023-06-22T12:27:10;101778.31;;;24.50;59.14
71764;BME280;59602;52.142;5.408;2023-06-22T12:29:37;101779.53;;;24.49;59.64
71764;BME280;59602;52.142;5.408;2023-06-22T12:32:04;101769.66;;;24.48;59.38
71764;BME280;59602;52.142;5.408;2023-06-22T12:34:31;101780.78;;;24.48;59.37
71764;BME280;59602;52.142;5.408;2023-06-22T12:36:58;101763.31;;;24.48;60.55
71764;BME280;59602;52.142;5.408;2023-06-22T12:39:25;101766.50;;;24.46;61.76
71764;BME280;59602;52.142;5.408;2023-06-22T12:41:55;101774.53;;;24.44;64.22
71764;BME280;59602;52.142;5.408;2023-06-22T12:44:23;101766.34;;;24.40;63.85
71764;BME280;59602;52.142;5.408;2023-06-22T12:46:57;101766.91;;;24.35;66.30
71764;BME280;59602;52.142;5.408;2023-06-22T12:49:48;101762.91;;;24.36;64.74
71764;BME280;59602;52.142;5.408;2023-06-22T12:52:21;101763.34;;;24.35;64.67
71764;BME280;59602;52.142;5.408;2023-06-22T12:54:50;101763.78;;;24.33;62.31
71764;BME280;59602;52.142;5.408;2023-06-22T12:57:21;101757.41;;;24.23;61.76
71764;BME280;59602;52.142;5.408;2023-06-22T12:59:51;101762.00;;;24.17;62.88
71764;BME280;59602;52.142;5.408;2023-06-22T13:02:39;101759.97;;;24.18;61.81
71764;BME280;59602;52.142;5.408;2023-06-22T13:05:38;101751.09;;;24.23;63.66